sensor_id;sensor_type;location;lat;lon;timestamp;temperature;humidity
51615;DHT22;37695;52.960;6.188;2022-08-19T00:02:04;15.80;99.90
51615;DHT22;37695;52.960;6.188;2022-08-19T00:04:32;15.70;99.90
51615;DHT22;37695;52.960;6.188;2022-08-19T00:07:00;15.70;99.90
51615;DHT22;37695;52.960;6.188;2022-08-19T00:09:26;15.70;99.90
51615;DHT22;37695;52.960;6.188;2022-08-19T00:11:53;15.70;99.90
51615;DHT22;37695;52.960;6.188;2022-08-19T00:14:21;15.60;99.90
51615;DHT22;37695;52.960;6.188;2022-08-19T00:16:48;15.60;99.90
51615;DHT22;37695;52.960;6.188;2022-08-19T00:19:15;15.60;99.90
51615;DHT22;37695;52.960;6.188;2022-08-19T00:21:41;15.50;99.90
51615;DHT22;37695;52.960;6.188;2022-08-19T00:24:09;15.50;99.90
51615;DHT22;37695;52.960;6.188;2022-08-19T00:26:35;15.50;99.90
51615;DHT22;37695;52.960;6.188;2022-08-19T00:29:01;15.50;99.90
51615;DHT22;37695;52.960;6.188;2022-08-19T00:31:27;15.50;99.90
51615;DHT22;37695;52.960;6.188;2022-08-19T00:33:53;15.50;99.90
51615;DHT22;37695;52.960;6.188;2022-08-19T00:36:19;15.40;99.90
51615;DHT22;37695;52.960;6.188;2022-08-19T00:38:45;15.40;99.90
51615;DHT22;37695;52.960;6.188;2022-08-19T00:41:14;15.40;99.90
51615;DHT22;37695;52.960;6.188;2022-08-19T00:43:40;15.30;99.90
51615;DHT22;37695;52.960;6.188;2022-08-19T00:46:07;15.30;99.90
51615;DHT22;37695;52.960;6.188;2022-08-19T00:48:33;15.30;99.90
51615;DHT22;37695;52.960;6.188;2022-08-19T00:51:00;15.30;99.90
51615;DHT22;37695;52.960;6.188;2022-08-19T00:53:29;15.20;99.90
51615;DHT22;37695;52.960;6.188;2022-08-19T00:55:58;15.20;99.90
51615;DHT22;37695;52.960;6.188;2022-08-19T00:58:28;15.20;99.90
51615;DHT22;37695;52.960;6.188;2022-08-19T01:00:54;15.10;99.90
51615;DHT22;37695;52.960;6.188;2022-08-19T01:03:21;15.10;99.90
51615;DHT22;37695;52.960;6.188;2022-08-19T01:05:48;15.10;99.90
51615;DHT22;37695;52.960;6.188;2022-08-19T01:08:16;15.00;99.90
51615;DHT22;37695;52.960;6.188;2022-08-19T01:10:46;15.00;99.90
51615;DHT22;37695;52.960;6.188;2022-08-19T01:13:15;14.90;99.90
51615;DHT22;37695;52.960;6.188;2022-08-19T01:15:48;14.90;99.90
51615;DHT22;37695;52.960;6.188;2022-08-19T01:18:16;14.90;99.90
51615;DHT22;37695;52.960;6.188;2022-08-19T01:20:43;14.80;99.90
51615;DHT22;37695;52.960;6.188;2022-08-19T01:23:10;14.80;99.90
51615;DHT22;37695;52.960;6.188;2022-08-19T01:25:46;14.70;99.90
51615;DHT22;37695;52.960;6.188;2022-08-19T01:28:19;14.70;99.90
51615;DHT22;37695;52.960;6.188;2022-08-19T01:30:46;14.70;99.90
51615;DHT22;37695;52.960;6.188;2022-08-19T01:33:13;14.60;99.90
51615;DHT22;37695;52.960;6.188;2022-08-19T01:35:39;14.70;99.90
51615;DHT22;37695;52.960;6.188;2022-08-19T01:38:08;14.60;99.90
51615;DHT22;37695;52.960;6.188;2022-08-19T01:40:37;14.60;99.90
51615;DHT22;37695;52.960;6.188;2022-08-19T01:43:04;14.60;99.90
51615;DHT22;37695;52.960;6.188;2022-08-19T01:45:32;14.60;99.90
51615;DHT22;37695;52.960;6.188;2022-08-19T01:47:59;14.50;99.90
51615;DHT22;37695;52.960;6.188;2022-08-19T01:50:25;14.50;99.90
51615;DHT22;37695;52.960;6.188;2022-08-19T01:52:51;14.50;99.90
51615;DHT22;37695;52.960;6.188;2022-08-19T01:55:19;14.50;99.90
51615;DHT22;37695;52.960;6.188;2022-08-19T01:57:51;14.50;99.90
51615;DHT22;37695;52.960;6.188;2022-08-19T02:00:20;14.40;99.90
51615;DHT22;37695;52.960;6.188;2022-08-19T02:02:47;14.40;99.90
51615;DHT22;37695;52.960;6.188;2022-08-19T02:05:13;14.40;99.90
51615;DHT22;37695;52.960;6.188;2022-08-19T02:07:39;14.40;99.90
51615;DHT22;37695;52.960;6.188;2022-08-19T02:10:12;14.50;99.90
51615;DHT22;37695;52.960;6.188;2022-08-19T02:12:38;14.50;99.90
51615;DHT22;37695;52.960;6.188;2022-08-19T02:15:04;14.50;99.90
51615;DHT22;37695;52.960;6.188;2022-08-19T02:17:31;14.60;99.90
51615;DHT22;37695;52.960;6.188;2022-08-19T02:19:57;14.60;99.90
51615;DHT22;37695;52.960;6.188;2022-08-19T02:22:24;14.60;99.90
51615;DHT22;37695;52.960;6.188;2022-08-19T02:24:54;14.60;99.90
51615;DHT22;37695;52.960;6.188;2022-08-19T02:27:21;14.60;99.90
51615;DHT22;37695;52.960;6.188;2022-08-19T02:29:48;14.40;99.90
51615;DHT22;37695;52.960;6.188;2022-08-19T02:32:15;14.30;99.90
51615;DHT22;37695;52.960;6.188;2022-08-19T02:34:41;14.30;99.90
51615;DHT22;37695;52.960;6.188;2022-08-19T02:37:07;14.30;99.90
51615;DHT22;37695;52.960;6.188;2022-08-19T02:39:52;14.40;99.90
51615;DHT22;37695;52.960;6.188;2022-08-19T02:42:18;14.40;99.90
51615;DHT22;37695;52.960;6.188;2022-08-19T02:44:44;14.50;99.90
51615;DHT22;37695;52.960;6.188;2022-08-19T02:47:10;14.40;99.90
51615;DHT22;37695;52.960;6.188;2022-08-19T02:49:35;14.20;99.90
51615;DHT22;37695;52.960;6.188;2022-08-19T02:52:02;14.20;99.90
51615;DHT22;37695;52.960;6.188;2022-08-19T02:54:27;14.20;99.90
51615;DHT22;37695;52.960;6.188;2022-08-19T02:56:53;14.20;99.90
51615;DHT22;37695;52.960;6.188;2022-08-19T02:59:19;14.10;99.90
51615;DHT22;37695;52.960;6.188;2022-08-19T03:01:45;14.20;99.90
51615;DHT22;37695;52.960;6.188;2022-08-19T03:04:13;14.20;99.90
51615;DHT22;37695;52.960;6.188;2022-08-19T03:06:41;14.30;99.90
51615;DHT22;37695;52.960;6.188;2022-08-19T03:09:07;14.30;99.90
51615;DHT22;37695;52.960;6.188;2022-08-19T03:11:33;14.30;99.90
51615;DHT22;37695;52.960;6.188;2022-08-19T03:13:59;14.30;99.90
51615;DHT22;37695;52.960;6.188;2022-08-19T03:16:27;14.30;99.90
51615;DHT22;37695;52.960;6.188;2022-08-19T03:18:55;14.30;99.90
51615;DHT22;37695;52.960;6.188;2022-08-19T03:21:25;14.30;99.90
51615;DHT22;37695;52.960;6.188;2022-08-19T03:23:56;14.30;99.90
51615;DHT22;37695;52.960;6.188;2022-08-19T03:26:22;14.20;99.90
51615;DHT22;37695;52.960;6.188;2022-08-19T03:28:47;14.20;99.90
51615;DHT22;37695;52.960;6.188;2022-08-19T03:31:17;14.10;99.90
51615;DHT22;37695;52.960;6.188;2022-08-19T03:33:43;14.10;99.90
51615;DHT22;37695;52.960;6.188;2022-08-19T03:36:18;14.00;99.90
51615;DHT22;37695;52.960;6.188;2022-08-19T03:38:49;13.90;99.90
51615;DHT22;37695;52.960;6.188;2022-08-19T03:41:20;13.90;99.90
51615;DHT22;37695;52.960;6.188;2022-08-19T03:43:47;13.90;99.90
51615;DHT22;37695;52.960;6.188;2022-08-19T03:46:18;14.00;99.90
51615;DHT22;37695;52.960;6.188;2022-08-19T03:48:46;14.00;99.90
51615;DHT22;37695;52.960;6.188;2022-08-19T03:51:18;13.90;99.90
51615;DHT22;37695;52.960;6.188;2022-08-19T03:53:45;13.90;99.90
51615;DHT22;37695;52.960;6.188;2022-08-19T03:56:11;13.80;99.90
51615;DHT22;37695;52.960;6.188;2022-08-19T03:58:38;13.80;99.90
51615;DHT22;37695;52.960;6.188;2022-08-19T04:01:08;13.80;99.90
51615;DHT22;37695;52.960;6.188;2022-08-19T04:03:34;13.90;99.90
51615;DHT22;37695;52.960;6.188;2022-08-19T04:06:25;13.90;99.90
51615;DHT22;37695;52.960;6.188;2022-08-19T04:08:52;13.90;99.90
51615;DHT22;37695;52.960;6.188;2022-08-19T04:11:22;13.90;99.90
51615;DHT22;37695;52.960;6.188;2022-08-19T04:13:49;13.80;99.90
51615;DHT22;37695;52.960;6.188;2022-08-19T04:16:17;13.80;99.90
51615;DHT22;37695;52.960;6.188;2022-08-19T04:18:43;13.70;99.90
51615;DHT22;37695;52.960;6.188;2022-08-19T04:21:16;13.60;99.90
51615;DHT22;37695;52.960;6.188;2022-08-19T04:23:42;13.60;99.90
51615;DHT22;37695;52.960;6.188;2022-08-19T04:26:13;13.60;99.90
51615;DHT22;37695;52.960;6.188;2022-08-19T04:28:39;13.70;99.90
51615;DHT22;37695;52.960;6.188;2022-08-19T04:31:05;13.80;99.90
51615;DHT22;37695;52.960;6.188;2022-08-19T04:33:30;13.80;99.90
51615;DHT22;37695;52.960;6.188;2022-08-19T04:35:56;13.80;99.90
51615;DHT22;37695;52.960;6.188;2022-08-19T04:38:23;13.70;99.90
51615;DHT22;37695;52.960;6.188;2022-08-19T04:40:51;13.60;99.90
51615;DHT22;37695;52.960;6.188;2022-08-19T04:43:37;13.60;99.90
51615;DHT22;37695;52.960;6.188;2022-08-19T04:46:08;13.60;99.90
51615;DHT22;37695;52.960;6.188;2022-08-19T04:48:34;13.70;99.90
51615;DHT22;37695;52.960;6.188;2022-08-19T04:51:01;13.70;99.90
51615;DHT22;37695;52.960;6.188;2022-08-19T04:53:31;13.70;99.90
51615;DHT22;37695;52.960;6.188;2022-08-19T04:55:58;13.70;99.90
51615;DHT22;37695;52.960;6.188;2022-08-19T04:58:26;13.70;99.90
51615;DHT22;37695;52.960;6.188;2022-08-19T05:00:52;13.80;99.90
51615;DHT22;37695;52.960;6.188;2022-08-19T05:03:18;13.70;99.90
51615;DHT22;37695;52.960;6.188;2022-08-19T05:05:45;13.80;99.90
51615;DHT22;37695;52.960;6.188;2022-08-19T05:08:15;13.80;99.90
51615;DHT22;37695;52.960;6.188;2022-08-19T05:10:50;13.90;99.90
51615;DHT22;37695;52.960;6.188;2022-08-19T05:13:18;13.90;99.90
51615;DHT22;37695;52.960;6.188;2022-08-19T05:15:44;14.00;99.90
51615;DHT22;37695;52.960;6.188;2022-08-19T05:18:18;14.10;99.90
51615;DHT22;37695;52.960;6.188;2022-08-19T05:21:07;14.20;99.90
51615;DHT22;37695;52.960;6.188;2022-08-19T05:23:51;14.30;99.90
51615;DHT22;37695;52.960;6.188;2022-08-19T05:26:16;14.30;99.90
51615;DHT22;37695;52.960;6.188;2022-08-19T05:28:42;14.40;99.90
51615;DHT22;37695;52.960;6.188;2022-08-19T05:31:07;14.40;99.90
51615;DHT22;37695;52.960;6.188;2022-08-19T05:33:33;14.50;99.90
51615;DHT22;37695;52.960;6.188;2022-08-19T05:35:58;14.50;99.90
51615;DHT22;37695;52.960;6.188;2022-08-19T05:38:24;14.60;99.90
51615;DHT22;37695;52.960;6.188;2022-08-19T05:40:52;14.60;99.90
51615;DHT22;37695;52.960;6.188;2022-08-19T05:43:18;14.70;99.90
51615;DHT22;37695;52.960;6.188;2022-08-19T05:45:44;14.80;99.90
51615;DHT22;37695;52.960;6.188;2022-08-19T05:48:10;14.80;99.90
51615;DHT22;37695;52.960;6.188;2022-08-19T05:50:38;14.90;99.90
51615;DHT22;37695;52.960;6.188;2022-08-19T05:53:04;15.00;99.90
51615;DHT22;37695;52.960;6.188;2022-08-19T05:55:30;15.00;99.90
51615;DHT22;37695;52.960;6.188;2022-08-19T05:57:57;15.10;99.90
51615;DHT22;37695;52.960;6.188;2022-08-19T06:00:23;15.20;99.90
51615;DHT22;37695;52.960;6.188;2022-08-19T06:02:48;15.30;99.90
51615;DHT22;37695;52.960;6.188;2022-08-19T06:05:14;15.40;99.90
51615;DHT22;37695;52.960;6.188;2022-08-19T06:07:40;15.50;99.90
51615;DHT22;37695;52.960;6.188;2022-08-19T06:10:08;15.50;99.90
51615;DHT22;37695;52.960;6.188;2022-08-19T06:12:35;15.60;99.90
51615;DHT22;37695;52.960;6.188;2022-08-19T06:15:09;15.70;99.90
51615;DHT22;37695;52.960;6.188;2022-08-19T06:17:36;15.80;99.90
51615;DHT22;37695;52.960;6.188;2022-08-19T06:20:04;15.90;99.90
51615;DHT22;37695;52.960;6.188;2022-08-19T06:22:30;16.00;99.90
51615;DHT22;37695;52.960;6.188;2022-08-19T06:24:55;16.10;99.90
51615;DHT22;37695;52.960;6.188;2022-08-19T06:27:22;16.20;99.90
51615;DHT22;37695;52.960;6.188;2022-08-19T06:29:47;16.30;99.90
51615;DHT22;37695;52.960;6.188;2022-08-19T06:32:16;16.40;99.90
51615;DHT22;37695;52.960;6.188;2022-08-19T06:34:42;16.50;99.90
51615;DHT22;37695;52.960;6.188;2022-08-19T06:37:07;16.60;99.90
51615;DHT22;37695;52.960;6.188;2022-08-19T06:39:36;16.70;99.90
51615;DHT22;37695;52.960;6.188;2022-08-19T06:42:04;16.90;99.90
51615;DHT22;37695;52.960;6.188;2022-08-19T06:44:34;17.00;99.90
51615;DHT22;37695;52.960;6.188;2022-08-19T06:47:03;17.10;99.90
51615;DHT22;37695;52.960;6.188;2022-08-19T06:49:29;17.20;99.90
51615;DHT22;37695;52.960;6.188;2022-08-19T06:51:56;17.30;99.90
51615;DHT22;37695;52.960;6.188;2022-08-19T06:54:22;17.40;99.90
51615;DHT22;37695;52.960;6.188;2022-08-19T06:56:48;17.50;99.90
51615;DHT22;37695;52.960;6.188;2022-08-19T06:59:17;17.60;99.90
51615;DHT22;37695;52.960;6.188;2022-08-19T07:01:49;17.70;99.90
51615;DHT22;37695;52.960;6.188;2022-08-19T07:04:18;17.80;99.90
51615;DHT22;37695;52.960;6.188;2022-08-19T07:06:45;17.90;99.90
51615;DHT22;37695;52.960;6.188;2022-08-19T07:09:14;18.00;99.90
51615;DHT22;37695;52.960;6.188;2022-08-19T07:11:45;18.20;99.90
51615;DHT22;37695;52.960;6.188;2022-08-19T07:14:10;18.20;99.90
51615;DHT22;37695;52.960;6.188;2022-08-19T07:16:36;18.30;99.90
51615;DHT22;37695;52.960;6.188;2022-08-19T07:19:01;18.50;99.90
51615;DHT22;37695;52.960;6.188;2022-08-19T07:21:28;18.60;99.90
51615;DHT22;37695;52.960;6.188;2022-08-19T07:23:55;18.70;99.90
51615;DHT22;37695;52.960;6.188;2022-08-19T07:26:25;18.80;99.90
51615;DHT22;37695;52.960;6.188;2022-08-19T07:28:50;18.90;99.90
51615;DHT22;37695;52.960;6.188;2022-08-19T07:31:20;19.00;99.90
51615;DHT22;37695;52.960;6.188;2022-08-19T07:33:47;19.10;99.90
51615;DHT22;37695;52.960;6.188;2022-08-19T07:36:16;19.20;99.90
51615;DHT22;37695;52.960;6.188;2022-08-19T07:38:44;19.30;99.90
51615;DHT22;37695;52.960;6.188;2022-08-19T07:41:16;19.50;99.90
51615;DHT22;37695;52.960;6.188;2022-08-19T07:43:41;19.60;99.90
51615;DHT22;37695;52.960;6.188;2022-08-19T07:46:09;19.70;99.90
51615;DHT22;37695;52.960;6.188;2022-08-19T07:48:35;19.80;99.90
51615;DHT22;37695;52.960;6.188;2022-08-19T07:51:04;19.90;99.90
51615;DHT22;37695;52.960;6.188;2022-08-19T07:53:32;20.10;99.90
51615;DHT22;37695;52.960;6.188;2022-08-19T07:56:00;20.20;99.90
51615;DHT22;37695;52.960;6.188;2022-08-19T07:58:30;20.30;99.90
51615;DHT22;37695;52.960;6.188;2022-08-19T08:00:56;20.40;99.90
51615;DHT22;37695;52.960;6.188;2022-08-19T08:03:22;20.50;99.90
51615;DHT22;37695;52.960;6.188;2022-08-19T08:06:13;20.60;99.90
51615;DHT22;37695;52.960;6.188;2022-08-19T08:08:57;20.80;99.90
51615;DHT22;37695;52.960;6.188;2022-08-19T08:11:45;20.80;99.90
51615;DHT22;37695;52.960;6.188;2022-08-19T08:14:31;20.90;99.90
51615;DHT22;37695;52.960;6.188;2022-08-19T08:16:58;21.00;99.90
51615;DHT22;37695;52.960;6.188;2022-08-19T08:19:26;21.70;99.90
51615;DHT22;37695;52.960;6.188;2022-08-19T08:21:57;21.20;99.90
51615;DHT22;37695;52.960;6.188;2022-08-19T08:24:24;21.30;99.90
51615;DHT22;37695;52.960;6.188;2022-08-19T08:26:49;21.40;99.90
51615;DHT22;37695;52.960;6.188;2022-08-19T08:29:15;21.50;99.90
51615;DHT22;37695;52.960;6.188;2022-08-19T08:31:43;21.60;99.90
51615;DHT22;37695;52.960;6.188;2022-08-19T08:34:09;21.70;99.90
51615;DHT22;37695;52.960;6.188;2022-08-19T08:36:42;21.80;99.90
51615;DHT22;37695;52.960;6.188;2022-08-19T08:39:16;21.80;99.90
51615;DHT22;37695;52.960;6.188;2022-08-19T08:41:59;22.00;99.90
51615;DHT22;37695;52.960;6.188;2022-08-19T08:45:06;22.00;99.90
51615;DHT22;37695;52.960;6.188;2022-08-19T08:47:40;22.20;99.90
51615;DHT22;37695;52.960;6.188;2022-08-19T08:50:12;22.20;99.90
51615;DHT22;37695;52.960;6.188;2022-08-19T08:52:44;22.30;99.90
51615;DHT22;37695;52.960;6.188;2022-08-19T08:55:23;22.30;99.90
51615;DHT22;37695;52.960;6.188;2022-08-19T09:00:24;22.50;99.90
51615;DHT22;37695;52.960;6.188;2022-08-19T09:02:50;22.60;99.90
51615;DHT22;37695;52.960;6.188;2022-08-19T09:05:16;22.60;99.90
51615;DHT22;37695;52.960;6.188;2022-08-19T09:08:04;22.70;99.90
51615;DHT22;37695;52.960;6.188;2022-08-19T09:15:58;22.80;99.90
51615;DHT22;37695;52.960;6.188;2022-08-19T09:18:29;22.80;99.90
51615;DHT22;37695;52.960;6.188;2022-08-19T09:21:03;22.80;99.90
51615;DHT22;37695;52.960;6.188;2022-08-19T09:23:28;22.90;99.90
51615;DHT22;37695;52.960;6.188;2022-08-19T09:25:54;23.00;99.90
51615;DHT22;37695;52.960;6.188;2022-08-19T09:28:20;23.10;99.90
51615;DHT22;37695;52.960;6.188;2022-08-19T09:30:45;23.20;99.90
51615;DHT22;37695;52.960;6.188;2022-08-19T09:33:11;23.30;99.90
51615;DHT22;37695;52.960;6.188;2022-08-19T09:35:37;23.40;99.90
51615;DHT22;37695;52.960;6.188;2022-08-19T09:38:02;23.50;99.90
51615;DHT22;37695;52.960;6.188;2022-08-19T09:40:29;23.60;99.90
51615;DHT22;37695;52.960;6.188;2022-08-19T09:42:55;23.60;99.90
51615;DHT22;37695;52.960;6.188;2022-08-19T09:45:22;23.70;99.90
51615;DHT22;37695;52.960;6.188;2022-08-19T09:47:49;23.60;99.90
51615;DHT22;37695;52.960;6.188;2022-08-19T09:50:16;23.50;99.90
51615;DHT22;37695;52.960;6.188;2022-08-19T09:52:42;23.60;99.90
51615;DHT22;37695;52.960;6.188;2022-08-19T09:55:09;23.70;99.90
51615;DHT22;37695;52.960;6.188;2022-08-19T09:57:35;23.90;99.90
51615;DHT22;37695;52.960;6.188;2022-08-19T10:00:05;23.80;99.90
51615;DHT22;37695;52.960;6.188;2022-08-19T10:02:31;23.60;99.90
51615;DHT22;37695;52.960;6.188;2022-08-19T10:04:57;23.50;99.90
51615;DHT22;37695;52.960;6.188;2022-08-19T10:07:40;23.30;99.90
51615;DHT22;37695;52.960;6.188;2022-08-19T10:10:07;23.50;99.90
51615;DHT22;37695;52.960;6.188;2022-08-19T10:12:34;23.70;99.90
51615;DHT22;37695;52.960;6.188;2022-08-19T10:15:01;23.70;99.90
51615;DHT22;37695;52.960;6.188;2022-08-19T10:17:27;24.00;99.90
51615;DHT22;37695;52.960;6.188;2022-08-19T10:19:52;24.00;99.90
51615;DHT22;37695;52.960;6.188;2022-08-19T10:22:18;24.10;99.90
51615;DHT22;37695;52.960;6.188;2022-08-19T10:24:46;24.30;99.90
51615;DHT22;37695;52.960;6.188;2022-08-19T10:27:11;24.50;99.90
51615;DHT22;37695;52.960;6.188;2022-08-19T10:29:38;24.50;99.90
51615;DHT22;37695;52.960;6.188;2022-08-19T10:32:07;24.60;99.90
51615;DHT22;37695;52.960;6.188;2022-08-19T10:34:34;24.60;99.90
51615;DHT22;37695;52.960;6.188;2022-08-19T10:37:00;24.80;99.90
51615;DHT22;37695;52.960;6.188;2022-08-19T10:39:30;24.90;99.90
51615;DHT22;37695;52.960;6.188;2022-08-19T10:41:56;25.00;99.90
51615;DHT22;37695;52.960;6.188;2022-08-19T10:44:22;25.20;99.90
51615;DHT22;37695;52.960;6.188;2022-08-19T10:46:50;25.30;99.90
51615;DHT22;37695;52.960;6.188;2022-08-19T10:49:17;25.60;99.90
51615;DHT22;37695;52.960;6.188;2022-08-19T10:51:44;25.70;99.90
51615;DHT22;37695;52.960;6.188;2022-08-19T10:54:28;26.00;99.90
51615;DHT22;37695;52.960;6.188;2022-08-19T10:57:13;25.80;99.90
51615;DHT22;37695;52.960;6.188;2022-08-19T10:59:39;25.30;99.90
51615;DHT22;37695;52.960;6.188;2022-08-19T11:02:08;25.20;99.90
51615;DHT22;37695;52.960;6.188;2022-08-19T11:04:39;25.30;99.90
51615;DHT22;37695;52.960;6.188;2022-08-19T11:07:05;25.30;99.90
51615;DHT22;37695;52.960;6.188;2022-08-19T11:09:31;25.10;99.90
51615;DHT22;37695;52.960;6.188;2022-08-19T11:12:03;24.90;99.90
51615;DHT22;37695;52.960;6.188;2022-08-19T11:14:29;24.60;99.90
51615;DHT22;37695;52.960;6.188;2022-08-19T11:16:56;24.50;99.90
51615;DHT22;37695;52.960;6.188;2022-08-19T11:19:22;24.60;99.90
51615;DHT22;37695;52.960;6.188;2022-08-19T11:21:50;24.60;99.90
51615;DHT22;37695;52.960;6.188;2022-08-19T11:24:18;24.90;99.90
51615;DHT22;37695;52.960;6.188;2022-08-19T11:26:46;25.00;99.90
51615;DHT22;37695;52.960;6.188;2022-08-19T11:29:13;25.20;99.90
51615;DHT22;37695;52.960;6.188;2022-08-19T11:31:41;24.90;99.90
51615;DHT22;37695;52.960;6.188;2022-08-19T11:34:09;24.60;99.90
51615;DHT22;37695;52.960;6.188;2022-08-19T11:36:38;24.70;99.90
51615;DHT22;37695;52.960;6.188;2022-08-19T11:39:06;24.60;99.90
51615;DHT22;37695;52.960;6.188;2022-08-19T11:41:32;24.70;99.90
51615;DHT22;37695;52.960;6.188;2022-08-19T11:43:57;25.00;99.90
51615;DHT22;37695;52.960;6.188;2022-08-19T11:46:25;25.30;99.90
51615;DHT22;37695;52.960;6.188;2022-08-19T11:48:51;25.10;99.90
51615;DHT22;37695;52.960;6.188;2022-08-19T11:51:21;25.00;99.90
51615;DHT22;37695;52.960;6.188;2022-08-19T11:53:47;24.80;99.90
51615;DHT22;37695;52.960;6.188;2022-08-19T11:56:14;24.90;99.90
51615;DHT22;37695;52.960;6.188;2022-08-19T11:58:40;25.00;99.90
51615;DHT22;37695;52.960;6.188;2022-08-19T12:01:13;25.20;99.90
51615;DHT22;37695;52.960;6.188;2022-08-19T12:03:41;25.50;99.90
51615;DHT22;37695;52.960;6.188;2022-08-19T12:06:10;25.70;99.90
51615;DHT22;37695;52.960;6.188;2022-08-19T12:08:37;26.00;99.90
51615;DHT22;37695;52.960;6.188;2022-08-19T12:11:04;26.10;99.90
51615;DHT22;37695;52.960;6.188;2022-08-19T12:13:30;26.20;99.90
51615;DHT22;37695;52.960;6.188;2022-08-19T12:15:57;26.20;99.90
51615;DHT22;37695;52.960;6.188;2022-08-19T12:18:23;26.10;99.90
51615;DHT22;37695;52.960;6.188;2022-08-19T12:20:53;26.00;99.90
51615;DHT22;37695;52.960;6.188;2022-08-19T12:23:20;25.70;99.90
51615;DHT22;37695;52.960;6.188;2022-08-19T12:25:47;25.60;99.90
51615;DHT22;37695;52.960;6.188;2022-08-19T12:28:21;25.50;99.90
51615;DHT22;37695;52.960;6.188;2022-08-19T12:30:48;25.40;99.90
51615;DHT22;37695;52.960;6.188;2022-08-19T12:33:15;25.50;99.90
51615;DHT22;37695;52.960;6.188;2022-08-19T12:35:42;25.70;99.90
51615;DHT22;37695;52.960;6.188;2022-08-19T12:38:12;25.60;99.90
51615;DHT22;37695;52.960;6.188;2022-08-19T12:40:37;25.60;99.90
51615;DHT22;37695;52.960;6.188;2022-08-19T12:43:05;25.60;99.90
51615;DHT22;37695;52.960;6.188;2022-08-19T12:45:31;25.70;99.90
51615;DHT22;37695;52.960;6.188;2022-08-19T12:47:57;26.00;99.90
51615;DHT22;37695;52.960;6.188;2022-08-19T12:50:22;26.10;99.90
51615;DHT22;37695;52.960;6.188;2022-08-19T12:52:48;26.20;99.90
51615;DHT22;37695;52.960;6.188;2022-08-19T12:55:14;26.20;99.90
51615;DHT22;37695;52.960;6.188;2022-08-19T12:57:39;26.20;99.90
51615;DHT22;37695;52.960;6.188;2022-08-19T13:00:12;26.10;99.90
51615;DHT22;37695;52.960;6.188;2022-08-19T13:02:44;26.20;99.90
51615;DHT22;37695;52.960;6.188;2022-08-19T13:05:16;26.20;99.90
51615;DHT22;37695;52.960;6.188;2022-08-19T13:07:42;26.20;99.90
51615;DHT22;37695;52.960;6.188;2022-08-19T13:10:13;26.10;99.90
51615;DHT22;37695;52.960;6.188;2022-08-19T13:12:41;26.20;99.90
51615;DHT22;37695;52.960;6.188;2022-08-19T13:15:07;26.00;99.90
51615;DHT22;37695;52.960;6.188;2022-08-19T13:17:34;25.80;99.90
51615;DHT22;37695;52.960;6.188;2022-08-19T13:20:00;25.50;99.90
51615;DHT22;37695;52.960;6.188;2022-08-19T13:22:25;25.30;99.90
51615;DHT22;37695;52.960;6.188;2022-08-19T13:24:51;25.00;99.90
51615;DHT22;37695;52.960;6.188;2022-08-19T13:27:18;24.80;99.90
51615;DHT22;37695;52.960;6.188;2022-08-19T13:29:43;24.70;99.90
51615;DHT22;37695;52.960;6.188;2022-08-19T13:32:28;24.60;99.90
51615;DHT22;37695;52.960;6.188;2022-08-19T13:35:13;24.50;99.90
51615;DHT22;37695;52.960;6.188;2022-08-19T13:37:39;24.40;99.90
51615;DHT22;37695;52.960;6.188;2022-08-19T13:42:38;24.40;99.90
51615;DHT22;37695;52.960;6.188;2022-08-19T13:45:04;24.30;99.90
51615;DHT22;37695;52.960;6.188;2022-08-19T13:47:32;24.30;99.90
51615;DHT22;37695;52.960;6.188;2022-08-19T13:50:02;24.30;99.90
51615;DHT22;37695;52.960;6.188;2022-08-19T13:52:28;24.20;99.90
51615;DHT22;37695;52.960;6.188;2022-08-19T13:54:54;24.30;99.90
51615;DHT22;37695;52.960;6.188;2022-08-19T13:57:20;24.40;99.90
51615;DHT22;37695;52.960;6.188;2022-08-19T13:59:45;24.50;99.90
51615;DHT22;37695;52.960;6.188;2022-08-19T14:02:11;24.60;99.90
51615;DHT22;37695;52.960;6.188;2022-08-19T14:04:37;24.60;99.90
51615;DHT22;37695;52.960;6.188;2022-08-19T14:07:03;24.60;99.90
51615;DHT22;37695;52.960;6.188;2022-08-19T14:09:29;24.40;99.90
51615;DHT22;37695;52.960;6.188;2022-08-19T14:11:55;24.40;99.90
51615;DHT22;37695;52.960;6.188;2022-08-19T14:14:20;24.30;99.90
51615;DHT22;37695;52.960;6.188;2022-08-19T14:16:46;24.10;99.90
51615;DHT22;37695;52.960;6.188;2022-08-19T14:19:12;24.10;99.90
51615;DHT22;37695;52.960;6.188;2022-08-19T14:21:38;24.10;99.90
51615;DHT22;37695;52.960;6.188;2022-08-19T14:24:04;24.00;99.90
51615;DHT22;37695;52.960;6.188;2022-08-19T14:26:30;24.10;99.90
51615;DHT22;37695;52.960;6.188;2022-08-19T14:28:56;24.10;99.90
51615;DHT22;37695;52.960;6.188;2022-08-19T14:31:22;24.10;99.90
51615;DHT22;37695;52.960;6.188;2022-08-19T14:33:49;24.20;99.90
51615;DHT22;37695;52.960;6.188;2022-08-19T14:36:16;24.20;99.90
51615;DHT22;37695;52.960;6.188;2022-08-19T14:38:43;24.20;99.90
51615;DHT22;37695;52.960;6.188;2022-08-19T14:41:15;24.20;99.90
51615;DHT22;37695;52.960;6.188;2022-08-19T14:43:43;24.30;99.90
51615;DHT22;37695;52.960;6.188;2022-08-19T14:46:13;24.30;99.90
51615;DHT22;37695;52.960;6.188;2022-08-19T14:48:39;24.40;99.90
51615;DHT22;37695;52.960;6.188;2022-08-19T14:51:05;24.40;99.90
51615;DHT22;37695;52.960;6.188;2022-08-19T14:53:31;24.40;99.90
51615;DHT22;37695;52.960;6.188;2022-08-19T14:55:59;24.40;99.90
51615;DHT22;37695;52.960;6.188;2022-08-19T14:58:25;24.40;99.90
51615;DHT22;37695;52.960;6.188;2022-08-19T15:00:50;24.40;99.90
51615;DHT22;37695;52.960;6.188;2022-08-19T15:03:16;24.30;99.90
51615;DHT22;37695;52.960;6.188;2022-08-19T15:05:41;24.30;99.90
51615;DHT22;37695;52.960;6.188;2022-08-19T15:08:07;24.20;99.90
51615;DHT22;37695;52.960;6.188;2022-08-19T15:10:33;24.10;99.90
51615;DHT22;37695;52.960;6.188;2022-08-19T15:12:58;24.10;99.90
51615;DHT22;37695;52.960;6.188;2022-08-19T15:15:24;24.10;99.90
51615;DHT22;37695;52.960;6.188;2022-08-19T15:17:50;24.10;99.90
51615;DHT22;37695;52.960;6.188;2022-08-19T15:20:18;24.10;99.90
51615;DHT22;37695;52.960;6.188;2022-08-19T15:22:45;24.10;99.90
51615;DHT22;37695;52.960;6.188;2022-08-19T15:25:12;24.10;99.90
51615;DHT22;37695;52.960;6.188;2022-08-19T15:27:39;24.00;99.90
51615;DHT22;37695;52.960;6.188;2022-08-19T15:30:08;24.00;99.90
51615;DHT22;37695;52.960;6.188;2022-08-19T15:32:35;24.00;99.90
51615;DHT22;37695;52.960;6.188;2022-08-19T15:35:02;24.00;99.90
51615;DHT22;37695;52.960;6.188;2022-08-19T15:37:29;23.90;99.90
51615;DHT22;37695;52.960;6.188;2022-08-19T15:39:55;24.00;99.90
51615;DHT22;37695;52.960;6.188;2022-08-19T15:42:20;24.00;99.90
51615;DHT22;37695;52.960;6.188;2022-08-19T15:44:47;24.00;99.90
51615;DHT22;37695;52.960;6.188;2022-08-19T15:47:13;24.00;99.90